Terminal Aerodrome Forecast
Issued by NWS Mt. Holly, NJ

Home | Current Version | Previous Version | Text Only | Print | Product List | Glossary On
Versions: 1 2 3 4 5 6 7 8 9 10 11 12 13 14 15 16 17 18 19 20 21 22 23 24 25 26 27 28 29 30 31 32
142
FTUS41 KPHI 191740
TAFPHL
TAF
KPHL 191740Z 1918/2024 32010KT P6SM BKN030 BKN300
      TEMPO 1918/1921 BKN025
     FM192100 32006KT P6SM SCT025 BKN250
     FM200600 VRB03KT P6SM SCT015 BKN250
      TEMPO 2008/2012 BKN015
     FM201700 10006KT 5SM -RA BKN020 OVC100
     FM202100 10005KT 3SM -RA BR OVC015=

USA.gov is the U.S. government's official web portal to all federal, state and local government web resources and services.